createdAt,value
2023-04-02T00:01:27.963Z,2.30
2023-04-02T00:04:16.269Z,3.33
2023-04-02T00:06:49.300Z,3.50
2023-04-02T00:09:29.961Z,2.80
2023-04-02T00:12:02.641Z,4.07
2023-04-02T00:14:33.884Z,2.92
2023-04-02T00:17:04.329Z,3.05
2023-04-02T00:19:37.498Z,3.15
2023-04-02T00:22:08.790Z,3.35
2023-04-02T00:24:39.661Z,3.17
2023-04-02T00:27:12.948Z,2.90
2023-04-02T00:29:46.990Z,3.28
2023-04-02T00:32:21.841Z,3.35
2023-04-02T00:34:50.522Z,2.88
2023-04-02T00:37:25.187Z,3.20
2023-04-02T00:39:59.253Z,3.13
2023-04-02T00:42:31.180Z,2.50
2023-04-02T00:44:59.799Z,2.85
2023-04-02T00:50:02.620Z,2.47
2023-04-02T00:52:33.209Z,4.07
2023-04-02T00:55:08.052Z,4.68
2023-04-02T00:57:38.227Z,4.00
2023-04-02T01:00:21.632Z,3.47
2023-04-02T01:03:28.672Z,3.50
2023-04-02T01:06:02.916Z,5.78
2023-04-02T01:08:55.785Z,3.28
2023-04-02T01:11:40.025Z,4.45
2023-04-02T01:14:18.984Z,4.53
2023-04-02T01:16:54.470Z,3.90
2023-04-02T01:19:58.616Z,2.25
2023-04-02T01:22:35.324Z,4.20
2023-04-02T01:25:06.496Z,4.18
2023-04-02T01:27:41.830Z,4.10
2023-04-02T01:30:14.503Z,2.65
2023-04-02T01:32:44.581Z,3.58
2023-04-02T01:35:13.199Z,3.75
2023-04-02T01:37:49.628Z,3.45
2023-04-02T01:40:32.159Z,3.35
2023-04-02T01:43:10.533Z,3.40
2023-04-02T01:45:40.538Z,4.28
2023-04-02T01:48:16.875Z,3.97
2023-04-02T01:50:47.896Z,4.28
2023-04-02T01:53:18.479Z,5.25
2023-04-02T01:55:50.026Z,4.28
2023-04-02T01:58:20.929Z,3.00
2023-04-02T02:00:54.500Z,3.75
2023-04-02T02:03:24.480Z,4.50
2023-04-02T02:05:53.072Z,3.20
2023-04-02T02:08:46.182Z,4.47
2023-04-02T02:11:18.328Z,3.67
2023-04-02T02:13:52.196Z,2.88
2023-04-02T02:16:22.485Z,4.18
2023-04-02T02:18:54.145Z,3.83
2023-04-02T02:21:31.661Z,3.13
2023-04-02T02:24:01.154Z,4.03
2023-04-02T02:26:31.233Z,4.18
2023-04-02T02:29:01.757Z,4.10
2023-04-02T02:31:34.231Z,4.50
2023-04-02T02:34:09.975Z,4.85
2023-04-02T02:36:45.926Z,5.00
2023-04-02T02:39:18.840Z,3.50
2023-04-02T02:41:53.708Z,4.05
2023-04-02T02:44:25.560Z,4.43
2023-04-02T02:47:00.052Z,3.78
2023-04-02T02:49:33.054Z,5.38
2023-04-02T02:52:14.208Z,4.13
2023-04-02T02:55:06.213Z,4.20
2023-04-02T02:58:07.201Z,3.42
2023-04-02T03:00:44.907Z,4.43
2023-04-02T03:03:18.635Z,4.65
2023-04-02T03:05:54.664Z,4.75
2023-04-02T03:08:31.174Z,4.50
2023-04-02T03:11:06.284Z,3.72
2023-04-02T03:13:36.840Z,4.30
2023-04-02T03:16:11.847Z,3.78
2023-04-02T03:18:49.198Z,3.72
2023-04-02T03:21:29.580Z,3.70
2023-04-02T03:24:02.319Z,3.13
2023-04-02T03:26:36.176Z,3.60
2023-04-02T03:29:14.085Z,2.53
2023-04-02T03:31:48.319Z,3.58
2023-04-02T03:34:25.702Z,3.33
2023-04-02T03:37:00.682Z,3.45
2023-04-02T03:39:36.819Z,3.50
2023-04-02T03:42:10.570Z,3.63
2023-04-02T03:44:45.666Z,4.05
2023-04-02T03:47:19.450Z,3.58
2023-04-02T03:49:56.639Z,4.07
2023-04-02T03:52:27.742Z,3.88
2023-04-02T03:55:00.537Z,3.63
2023-04-02T03:57:35.478Z,3.72
2023-04-02T04:00:09.526Z,5.00
2023-04-02T04:02:46.532Z,3.85
2023-04-02T04:05:25.363Z,3.95
2023-04-02T04:08:01.014Z,4.30
2023-04-02T04:10:31.116Z,4.78
2023-04-02T04:13:05.258Z,3.40
2023-04-02T04:15:38.437Z,4.40
2023-04-02T04:18:19.903Z,4.25
2023-04-02T04:20:56.875Z,2.60
2023-04-02T04:23:32.960Z,3.90
2023-04-02T04:26:09.901Z,2.33
2023-04-02T04:28:48.425Z,3.65
2023-04-02T04:31:25.301Z,2.78
2023-04-02T04:34:03.180Z,2.40
2023-04-02T04:36:41.597Z,3.40
2023-04-02T04:39:21.765Z,3.88
2023-04-02T04:41:53.042Z,3.25
2023-04-02T04:44:25.223Z,3.25
2023-04-02T04:47:01.644Z,3.80
2023-04-02T04:49:37.287Z,3.83
2023-04-02T04:52:13.050Z,2.10
2023-04-02T04:54:42.533Z,1.52
2023-04-02T04:57:26.906Z,3.13
2023-04-02T05:00:06.542Z,2.28
2023-04-02T05:02:42.819Z,2.42
2023-04-02T05:05:20.411Z,3.25
2023-04-02T05:07:57.342Z,3.03
2023-04-02T05:10:35.572Z,1.92
2023-04-02T05:13:10.706Z,4.03
2023-04-02T05:15:44.660Z,2.35
2023-04-02T05:18:23.166Z,2.90
2023-04-02T05:20:55.925Z,3.83
2023-04-02T05:23:29.813Z,2.85
2023-04-02T05:26:07.924Z,3.22
2023-04-02T05:28:44.250Z,1.63
2023-04-02T05:31:20.081Z,2.03
2023-04-02T05:33:51.356Z,3.30
2023-04-02T05:36:22.559Z,2.33
2023-04-02T05:38:57.493Z,2.53
2023-04-02T05:41:48.588Z,2.10
2023-04-02T05:44:31.286Z,2.00
2023-04-02T05:47:06.111Z,2.08
2023-04-02T05:49:41.678Z,2.53
2023-04-02T05:52:17.310Z,1.33
2023-04-02T05:54:53.437Z,1.83
2023-04-02T05:57:35.818Z,2.95
2023-04-02T06:00:20.234Z,2.28
2023-04-02T06:03:00.173Z,2.17
2023-04-02T06:05:35.334Z,1.80
2023-04-02T06:08:08.867Z,2.40
2023-04-02T06:10:47.467Z,3.03
2023-04-02T06:13:19.595Z,3.05
2023-04-02T06:15:48.290Z,2.55
2023-04-02T06:18:26.988Z,2.15
2023-04-02T06:20:56.256Z,3.30
2023-04-02T06:23:31.266Z,2.35
2023-04-02T06:26:08.566Z,2.97
2023-04-02T06:28:42.882Z,2.42
2023-04-02T06:31:19.398Z,2.95
2023-04-02T06:33:52.354Z,3.05
2023-04-02T06:36:22.540Z,4.60
2023-04-02T06:38:52.174Z,4.40
2023-04-02T06:41:23.629Z,5.75
2023-04-02T06:44:17.879Z,5.65
2023-04-02T06:47:21.791Z,5.57
2023-04-02T06:49:57.140Z,4.97
2023-04-02T06:52:30.003Z,4.70
2023-04-02T06:54:58.658Z,4.63
2023-04-02T06:57:28.720Z,6.55
2023-04-02T06:59:57.107Z,4.22
2023-04-02T07:02:31.756Z,8.32
2023-04-02T07:05:05.013Z,8.32
2023-04-02T07:07:36.119Z,8.15
2023-04-02T07:10:09.351Z,6.47
2023-04-02T07:12:39.434Z,5.63
2023-04-02T07:15:08.594Z,5.60
2023-04-02T07:17:37.165Z,8.32
2023-04-02T07:20:26.137Z,4.78
2023-04-02T07:22:56.164Z,5.47
2023-04-02T07:25:25.384Z,4.25
2023-04-02T07:27:55.494Z,5.85
2023-04-02T07:30:24.088Z,5.93
2023-04-02T07:32:52.416Z,3.08
2023-04-02T07:35:20.902Z,6.80
2023-04-02T07:37:49.066Z,6.47
2023-04-02T07:40:19.111Z,5.72
2023-04-02T07:42:47.652Z,4.30
2023-04-02T07:45:17.767Z,5.55
2023-04-02T07:47:46.303Z,5.22
2023-04-02T07:50:14.706Z,6.55
2023-04-02T07:55:12.630Z,5.50
2023-04-02T07:57:43.643Z,4.90
2023-04-02T08:00:14.108Z,5.10
2023-04-02T08:02:43.963Z,4.03
2023-04-02T08:05:12.594Z,4.22
2023-04-02T08:07:41.581Z,3.65
2023-04-02T08:10:12.772Z,2.08
2023-04-02T08:12:41.131Z,4.85
2023-04-02T08:15:11.765Z,5.07
2023-04-02T08:17:40.482Z,6.03
2023-04-02T08:20:15.529Z,4.25
2023-04-02T08:22:43.698Z,5.72
2023-04-02T08:25:11.921Z,4.95
2023-04-02T08:27:40.526Z,5.63
2023-04-02T08:30:10.765Z,3.38
2023-04-02T08:32:41.038Z,2.17
2023-04-02T08:35:12.715Z,3.47
2023-04-02T08:37:41.386Z,3.33
2023-04-02T08:42:51.902Z,2.42
2023-04-02T08:45:25.650Z,6.53
2023-04-02T08:47:57.386Z,3.53
2023-04-02T08:50:31.536Z,4.18
2023-04-02T08:53:00.606Z,4.65
2023-04-02T08:55:37.036Z,5.25
2023-04-02T08:58:14.442Z,4.13
2023-04-02T09:00:45.315Z,4.80
2023-04-02T09:03:19.105Z,3.42
2023-04-02T09:05:51.598Z,3.15
2023-04-02T09:08:21.974Z,2.53
2023-04-02T09:10:54.662Z,4.15
2023-04-02T09:13:27.214Z,3.65
2023-04-02T09:16:02.185Z,2.88
2023-04-02T09:18:33.150Z,4.28
2023-04-02T09:21:17.377Z,3.45
2023-04-02T09:23:45.909Z,4.55
2023-04-02T09:26:22.907Z,2.85
2023-04-02T09:28:53.216Z,3.70
2023-04-02T09:31:28.009Z,3.63
2023-04-02T09:36:35.156Z,3.15
2023-04-02T09:39:08.336Z,4.13
2023-04-02T09:41:37.570Z,4.38
2023-04-02T09:44:21.299Z,3.35
2023-04-02T09:46:56.290Z,4.53
2023-04-02T09:49:28.270Z,3.35
2023-04-02T09:52:28.588Z,3.80
2023-04-02T09:55:20.061Z,4.97
2023-04-02T09:57:49.574Z,3.67
2023-04-02T10:00:39.746Z,4.88
2023-04-02T10:03:24.259Z,4.72
2023-04-02T10:06:06.931Z,5.47
2023-04-02T10:08:37.873Z,4.93
2023-04-02T10:11:11.877Z,4.63
2023-04-02T10:13:50.742Z,4.10
2023-04-02T10:16:25.639Z,3.83
2023-04-02T10:18:59.062Z,3.13
2023-04-02T10:21:29.643Z,4.05
2023-04-02T10:24:00.486Z,1.60
2023-04-02T10:26:44.671Z,3.00
2023-04-02T10:29:32.223Z,3.45
2023-04-02T10:32:06.254Z,3.47
2023-04-02T10:34:43.115Z,4.47
2023-04-02T10:37:39.620Z,5.55
2023-04-02T10:40:13.526Z,4.30
2023-04-02T10:42:48.397Z,2.00
2023-04-02T10:45:24.654Z,4.22
2023-04-02T10:48:00.851Z,4.72
2023-04-02T10:50:35.956Z,4.03
2023-04-02T10:53:13.044Z,4.57
2023-04-02T10:55:46.674Z,5.15
2023-04-02T10:58:23.633Z,3.80
2023-04-02T11:00:55.076Z,4.82
2023-04-02T11:03:32.678Z,2.20
2023-04-02T11:06:05.865Z,3.90
2023-04-02T11:08:41.280Z,4.97
2023-04-02T11:11:16.016Z,4.03
2023-04-02T11:13:53.890Z,3.47
2023-04-02T11:16:22.898Z,4.45
2023-04-02T11:19:25.606Z,3.22
2023-04-02T11:22:00.100Z,3.10
2023-04-02T11:24:38.033Z,2.97
2023-04-02T11:27:17.055Z,3.13
2023-04-02T11:29:48.254Z,3.28
2023-04-02T11:32:28.773Z,3.33
2023-04-02T11:35:26.101Z,2.90
2023-04-02T11:37:55.747Z,2.28
2023-04-02T11:40:52.087Z,2.50
2023-04-02T11:43:56.462Z,1.83
2023-04-02T11:46:46.567Z,1.67
2023-04-02T11:49:41.075Z,1.52
2023-04-02T11:52:25.090Z,2.30
2023-04-02T11:55:02.959Z,1.75
2023-04-02T11:57:56.801Z,1.80
2023-04-02T12:00:52.812Z,2.38
2023-04-02T12:03:46.895Z,1.80
2023-04-02T12:08:57.861Z,2.08
2023-04-02T12:11:35.314Z,2.20
2023-04-02T12:14:07.975Z,1.92
2023-04-02T12:16:36.547Z,2.63
2023-04-02T12:19:10.166Z,1.92
2023-04-02T12:21:39.254Z,2.53
2023-04-02T12:24:16.238Z,2.15
2023-04-02T12:26:46.527Z,3.20
2023-04-02T12:29:25.466Z,2.75
2023-04-02T12:31:55.120Z,3.53
2023-04-02T12:34:26.576Z,2.50
2023-04-02T12:36:59.691Z,2.67
2023-04-02T12:39:28.553Z,2.78
2023-04-02T12:41:57.663Z,1.42
2023-04-02T12:44:28.388Z,2.92
2023-04-02T12:46:57.359Z,3.30
2023-04-02T12:49:39.442Z,3.30
2023-04-02T12:52:10.436Z,2.88
2023-04-02T12:54:48.196Z,3.20
2023-04-02T12:57:41.033Z,3.53
2023-04-02T13:00:36.201Z,3.60
2023-04-02T13:03:21.393Z,3.35
2023-04-02T13:05:55.218Z,3.25
2023-04-02T13:08:26.352Z,3.20
2023-04-02T13:10:57.632Z,3.78
2023-04-02T13:13:30.291Z,3.78
2023-04-02T13:16:07.140Z,3.17
2023-04-02T13:18:37.773Z,3.03
2023-04-02T13:21:07.986Z,2.92
2023-04-02T13:23:38.436Z,2.33
2023-04-02T13:26:17.957Z,3.00
2023-04-02T13:28:57.672Z,3.83
2023-04-02T13:31:26.093Z,3.58
2023-04-02T13:33:54.487Z,3.80
2023-04-02T13:38:51.902Z,3.33
2023-04-02T13:41:26.407Z,4.82
2023-04-02T13:43:55.442Z,3.35
2023-04-02T13:46:26.371Z,3.92
2023-04-02T13:48:56.154Z,4.18
2023-04-02T13:51:33.046Z,4.25
2023-04-02T13:54:01.505Z,4.30
2023-04-02T13:58:58.020Z,3.97
2023-04-02T14:01:27.326Z,3.22
2023-04-02T14:03:58.046Z,3.17
2023-04-02T14:06:37.609Z,3.75
2023-04-02T14:09:14.812Z,3.00
2023-04-02T14:11:54.478Z,2.83
2023-04-02T14:14:37.359Z,1.80
2023-04-02T14:17:16.636Z,2.45
2023-04-02T14:19:55.838Z,2.35
2023-04-02T14:22:40.004Z,2.50
2023-04-02T14:25:19.117Z,2.95
2023-04-02T14:27:53.112Z,2.10
2023-04-02T14:30:28.768Z,2.65
2023-04-02T14:33:08.076Z,2.25
2023-04-02T14:35:39.062Z,2.78
2023-04-02T14:38:17.425Z,2.50
2023-04-02T14:40:51.676Z,3.83
2023-04-02T14:43:25.146Z,2.97
2023-04-02T14:45:59.950Z,2.55
2023-04-02T14:48:38.248Z,2.28
2023-04-02T14:51:13.047Z,2.75
2023-04-02T14:56:19.758Z,3.15
2023-04-02T14:58:53.087Z,2.72
2023-04-02T15:01:26.797Z,3.28
2023-04-02T15:03:59.216Z,3.00
2023-04-02T15:06:31.994Z,3.53
2023-04-02T15:09:09.705Z,2.97
2023-04-02T15:11:40.699Z,2.15
2023-04-02T15:14:15.229Z,2.15
2023-04-02T15:16:43.452Z,3.20
2023-04-02T15:19:14.886Z,4.38
2023-04-02T15:21:59.956Z,4.72
2023-04-02T15:24:43.440Z,3.17
2023-04-02T15:27:25.390Z,3.03
2023-04-02T15:30:01.908Z,2.58
2023-04-02T15:32:38.615Z,1.75
2023-04-02T15:35:37.251Z,2.53
2023-04-02T15:38:13.051Z,3.22
2023-04-02T15:40:54.919Z,3.65
2023-04-02T15:43:27.106Z,3.88
2023-04-02T15:46:07.450Z,4.80
2023-04-02T15:48:59.102Z,3.58
2023-04-02T15:51:38.546Z,3.30
2023-04-02T15:54:20.673Z,2.75
2023-04-02T15:57:01.346Z,2.78
2023-04-02T15:59:43.628Z,3.13
2023-04-02T16:02:33.511Z,2.85
2023-04-02T16:05:05.017Z,2.90
2023-04-02T16:07:54.933Z,3.25
2023-04-02T16:10:41.247Z,2.92
2023-04-02T16:13:19.155Z,3.00
2023-04-02T16:15:53.402Z,3.05
2023-04-02T16:18:31.892Z,2.97
2023-04-02T16:21:02.996Z,2.97
2023-04-02T16:23:35.116Z,3.25
2023-04-02T16:26:14.745Z,3.67
2023-04-02T16:28:52.414Z,3.35
2023-04-02T16:31:29.907Z,2.95
2023-04-02T16:34:05.465Z,2.90
2023-04-02T16:36:47.259Z,3.60
2023-04-02T16:39:27.134Z,3.40
2023-04-02T16:42:06.785Z,3.42
2023-04-02T16:44:45.398Z,3.75
2023-04-02T16:47:23.645Z,3.25
2023-04-02T16:49:58.207Z,3.25
2023-04-02T16:52:37.231Z,3.22
2023-04-02T16:55:23.714Z,3.95
2023-04-02T16:58:00.645Z,3.67
2023-04-02T17:00:37.996Z,4.35
2023-04-02T17:03:20.814Z,3.58
2023-04-02T17:05:57.413Z,3.80
2023-04-02T17:08:27.999Z,2.92
2023-04-02T17:11:01.220Z,3.90
2023-04-02T17:13:39.570Z,3.15
2023-04-02T17:16:19.914Z,4.10
2023-04-02T17:18:49.762Z,3.65
2023-04-02T17:21:21.452Z,3.78
2023-04-02T17:23:56.403Z,3.72
2023-04-02T17:26:27.712Z,3.97
2023-04-02T17:28:59.142Z,3.53
2023-04-02T17:31:34.246Z,4.00
2023-04-02T17:34:11.071Z,3.78
2023-04-02T17:36:47.608Z,3.97
2023-04-02T17:39:21.776Z,3.85
2023-04-02T17:41:57.287Z,3.55
2023-04-02T17:44:42.975Z,3.63
2023-04-02T17:47:21.095Z,3.35
2023-04-02T17:50:03.243Z,3.72
2023-04-02T17:52:37.197Z,3.70
2023-04-02T17:55:20.099Z,3.72
2023-04-02T17:58:01.673Z,3.38
2023-04-02T18:00:50.500Z,3.25
2023-04-02T18:03:34.742Z,3.35
2023-04-02T18:06:09.800Z,3.58
2023-04-02T18:08:46.108Z,3.63
2023-04-02T18:11:23.813Z,3.30
2023-04-02T18:13:57.915Z,3.28
2023-04-02T18:16:47.897Z,3.38
2023-04-02T18:19:23.987Z,3.88
2023-04-02T18:22:06.835Z,3.15
2023-04-02T18:24:48.499Z,3.20
2023-04-02T18:27:39.547Z,3.55
2023-04-02T18:30:19.699Z,3.35
2023-04-02T18:33:29.802Z,3.50
2023-04-02T18:36:07.597Z,5.03
2023-04-02T18:38:43.972Z,4.72
2023-04-02T18:41:33.770Z,5.35
2023-04-02T18:44:16.073Z,5.90
2023-04-02T18:46:51.315Z,7.60
2023-04-02T18:49:28.352Z,7.35
2023-04-02T18:52:02.143Z,6.10
2023-04-02T18:54:34.019Z,5.72
2023-04-02T18:57:09.479Z,5.35
2023-04-02T18:59:44.914Z,4.40
2023-04-02T19:02:34.350Z,5.03
2023-04-02T19:05:05.790Z,6.00
2023-04-02T19:07:39.585Z,3.88
2023-04-02T19:10:24.460Z,3.05
2023-04-02T19:12:52.747Z,2.08
2023-04-02T19:15:21.451Z,2.85
2023-04-02T19:17:59.302Z,2.20
2023-04-02T19:20:34.930Z,2.55
2023-04-02T19:23:20.720Z,3.25
2023-04-02T19:26:01.285Z,2.92
2023-04-02T19:28:35.046Z,3.83
2023-04-02T19:31:14.013Z,2.50
2023-04-02T19:33:49.229Z,2.55
2023-04-02T19:36:36.676Z,2.58
2023-04-02T19:39:31.426Z,2.42
2023-04-02T19:42:04.656Z,2.00
2023-04-02T19:44:32.818Z,2.80
2023-04-02T19:47:01.021Z,2.20
2023-04-02T19:49:31.820Z,2.10
2023-04-02T19:51:59.859Z,2.08
2023-04-02T19:54:29.580Z,2.63
2023-04-02T19:56:57.650Z,2.20
2023-04-02T19:59:25.926Z,2.22
2023-04-02T20:01:54.039Z,2.88
2023-04-02T20:04:22.357Z,1.90
2023-04-02T20:06:50.578Z,2.42
2023-04-02T20:09:18.702Z,3.13
2023-04-02T20:11:48.923Z,2.97
2023-04-02T20:14:17.219Z,2.33
2023-04-02T20:16:45.935Z,2.13
2023-04-02T20:19:14.300Z,2.03
2023-04-02T20:21:42.275Z,2.55
2023-04-02T20:24:10.536Z,2.42
2023-04-02T20:26:38.608Z,2.45
2023-04-02T20:29:08.162Z,1.77
2023-04-02T20:31:36.978Z,2.15
2023-04-02T20:34:06.785Z,1.85
2023-04-02T20:36:35.479Z,1.83
2023-04-02T20:39:03.935Z,2.35
2023-04-02T20:41:31.976Z,2.08
2023-04-02T20:44:00.566Z,1.88
2023-04-02T20:46:30.304Z,2.25
2023-04-02T20:48:58.560Z,2.08
2023-04-02T20:51:26.671Z,1.90
2023-04-02T20:53:55.389Z,2.05
2023-04-02T20:58:52.369Z,2.40
2023-04-02T21:01:22.214Z,2.03
2023-04-02T21:03:55.665Z,2.28
2023-04-02T21:06:25.684Z,2.45
2023-04-02T21:08:54.170Z,2.30
2023-04-02T21:13:51.797Z,1.58
2023-04-02T21:16:22.851Z,2.55
2023-04-02T21:18:53.830Z,1.48
2023-04-02T21:21:23.585Z,1.77
2023-04-02T21:23:56.223Z,1.95
2023-04-02T21:26:24.742Z,2.08
2023-04-02T21:31:22.522Z,2.20
2023-04-02T21:33:53.689Z,2.08
2023-04-02T21:36:24.026Z,2.38
2023-04-02T21:38:54.096Z,2.30
2023-04-02T21:41:24.387Z,2.00
2023-04-02T21:43:52.750Z,1.90
2023-04-02T21:46:23.238Z,2.22
2023-04-02T21:48:54.139Z,2.92
2023-04-02T21:51:24.639Z,2.55
2023-04-02T21:53:54.746Z,4.35
2023-04-02T21:56:24.608Z,3.83
2023-04-02T21:58:53.526Z,3.67
2023-04-02T22:01:27.313Z,2.70
2023-04-02T22:03:59.022Z,3.65
2023-04-02T22:06:29.244Z,3.20
2023-04-02T22:08:59.655Z,2.97
2023-04-02T22:11:30.490Z,2.70
2023-04-02T22:13:59.300Z,2.42
2023-04-02T22:18:59.336Z,1.95
2023-04-02T22:21:27.626Z,2.10
2023-04-02T22:23:56.493Z,2.13
2023-04-02T22:26:24.484Z,2.45
2023-04-02T22:28:53.038Z,1.70
2023-04-02T22:33:51.393Z,1.85
2023-04-02T22:36:22.475Z,1.67
2023-04-02T22:38:51.000Z,2.00
2023-04-02T22:41:22.225Z,2.25
2023-04-02T22:43:50.649Z,1.90
2023-04-02T22:46:19.899Z,1.98
2023-04-02T22:48:50.919Z,1.70
2023-04-02T22:51:22.316Z,2.33
2023-04-02T22:53:50.958Z,2.28
2023-04-02T22:58:47.814Z,2.10
2023-04-02T23:01:17.628Z,2.53
2023-04-02T23:03:46.231Z,2.47
2023-04-02T23:06:16.975Z,1.73
2023-04-02T23:08:47.372Z,2.28
2023-04-02T23:11:17.582Z,3.50
2023-04-02T23:13:47.705Z,2.38
2023-04-02T23:16:16.618Z,3.20
2023-04-02T23:18:48.111Z,2.83
2023-04-02T23:21:16.708Z,2.75
2023-04-02T23:23:46.608Z,2.40
2023-04-02T23:26:17.286Z,2.83
2023-04-02T23:28:46.075Z,2.53
2023-04-02T23:31:16.295Z,3.13
2023-04-02T23:33:44.908Z,3.08
2023-04-02T23:38:42.900Z,2.30
2023-04-02T23:41:15.574Z,2.25
2023-04-02T23:43:44.692Z,2.25
2023-04-02T23:46:12.834Z,2.72
2023-04-02T23:48:41.239Z,2.35
2023-04-02T23:51:09.408Z,3.13
2023-04-02T23:53:37.454Z,2.20
2023-04-02T23:56:05.873Z,2.30
2023-04-02T23:58:35.348Z,2.08
